This is the latest recevied weather packets stored in our database for station/object DL4PY-13. If no packets are shown the sender has not sent any weather packets the latest 10 day(s).
| Time | Temp. | Humidity | Pressure | Rain* | Wind** | Luminosity | Snow |
|---|---|---|---|---|---|---|---|
| 1777732141 | 26.11° C | 42% | 1017.5 hPa | 0 mm | - | - | - |
| 1777731827 | 26.11° C | 42% | 1017.5 hPa | 0 mm | - | - | - |
| 1777731537 | 25.56° C | 44% | 1017.7 hPa | 0 mm | - | - | - |
| 1777731238 | 25.56° C | 45% | 1017.7 hPa | 0 mm | - | - | - |
| 1777730928 | 25.56° C | 43% | 1017.8 hPa | 0 mm | - | - | - |
| 1777730640 | 25.56° C | 43% | 1017.9 hPa | 0 mm | - | - | - |
| 1777730337 | 25.56° C | 42% | 1017.8 hPa | 0 mm | - | - | - |
| 1777730028 | 26.11° C | 43% | 1017.9 hPa | 0 mm | - | - | - |
| 1777729738 | 25.56° C | 43% | 1017.9 hPa | 0 mm | - | - | - |
| 1777729438 | 25.56° C | 44% | 1018 hPa | 0 mm | - | - | - |
| 1777729127 | 25.56° C | 42% | 1018 hPa | 0 mm | - | - | - |
| 1777728840 | 25.56° C | 41% | 1018 hPa | 0 mm | - | - | - |
| 1777728227 | 25.56° C | 42% | 1018.1 hPa | 0 mm | - | - | - |
| 1777727938 | 25° C | 43% | 1018.3 hPa | 0 mm | - | - | - |
| 1777727328 | 25° C | 42% | 1018.5 hPa | 0 mm | - | - | - |
| 1777727037 | 25° C | 42% | 1018.5 hPa | 0 mm | - | - | - |
| 1777726737 | 25.56° C | 39% | 1018.4 hPa | 0 mm | - | - | - |
| 1777726427 | 25° C | 40% | 1018.6 hPa | 0 mm | - | - | - |
| 1777726138 | 25.56° C | 40% | 1018.7 hPa | 0 mm | - | - | - |
| 1777725838 | 25.56° C | 38% | 1018.7 hPa | 0 mm | - | - | - |
| 1777725533 | 25.56° C | 38% | 1018.7 hPa | 0 mm | - | - | - |
| 1777725238 | 25.56° C | 39% | 1018.9 hPa | 0 mm | - | - | - |
| 1777724938 | 25° C | 39% | 1019 hPa | 0 mm | - | - | - |
| 1777724627 | 24.44° C | 39% | 1019 hPa | 0 mm | - | - | - |
| 1777724338 | 24.44° C | 41% | 1019.1 hPa | 0 mm | - | - | - |
* Rain latest hour (hover to see other rain measurements)
** Current wind speed in m/s (hover to see current wind gust speed)